Terminal Aerodrome Forecast
Issued by NWS Sioux Falls, SD

Home | Current Version | Previous Version | Graphics & Text | Print | Product List | Glossary On
Versions: 1 2 3 4 5 6 7 8 9 10 11 12 13 14 15 16 17 18 19 20 21 22
000
FTUS43 KFSD 131720
TAFFSD
TAF
KFSD 131720Z 1318/1418 VRB04KT P6SM SKC
     FM140500 16009KT P6SM BKN040
     FM140800 16009KT P6SM BKN025
     FM141400 19008KT P6SM BKN015
     FM141700 22008KT P6SM BKN040=

USA.gov is the U.S. government's official web portal to all federal, state and local government web resources and services.